Time;durP1;ratioP1;P1;durP2;ratioP2;P2;SDS_P1;SDS_P2;PMS_P1;PMS_P2;Temp;Humidity;BMP_temperature;BMP_pressure;BME280_temperature;BME280_humidity;BME280_pressure;Samples;Min_cycle;Max_cycle;Signal;HPM_P1;HPM_P2
2021/01/13 00:01:04;;;;;;;5.10;2.40;;;;;;;;;;5046723;28;20056;-67
2021/01/13 00:03:30;;;;;;;9.60;2.28;;;;;;;;;;5044646;28;20090;-67
2021/01/13 00:05:56;;;;;;;10.40;2.20;;;;;;;;;;5051420;28;20467;-68
2021/01/13 00:08:22;;;;;;;6.00;2.90;;;;;;;;;;5051049;28;20045;-67
2021/01/13 00:10:49;;;;;;;9.20;2.77;;;;;;;;;;5051391;28;20091;-68
2021/01/13 00:13:16;;;;;;;6.32;2.47;;;;;;;;;;5052044;28;20416;-68
2021/01/13 00:15:43;;;;;;;9.40;3.00;;;;;;;;;;5039093;28;20042;-67
2021/01/13 00:18:10;;;;;;;11.88;2.50;;;;;;;;;;5050229;28;20049;-68
2021/01/13 00:20:37;;;;;;;9.00;2.57;;;;;;;;;;5043430;28;20057;-67
2021/01/13 00:23:03;;;;;;;9.27;2.70;;;;;;;;;;5051666;28;20060;-68
2021/01/13 00:25:29;;;;;;;8.73;2.40;;;;;;;;;;5046189;28;20044;-67
2021/01/13 00:27:55;;;;;;;9.87;2.60;;;;;;;;;;5043867;28;20057;-68
2021/01/13 00:30:22;;;;;;;9.43;2.57;;;;;;;;;;5041347;28;20470;-67
2021/01/13 00:32:49;;;;;;;12.27;2.80;;;;;;;;;;5041926;28;20124;-67
2021/01/13 00:35:16;;;;;;;9.20;3.23;;;;;;;;;;5049103;28;20045;-66
2021/01/13 00:37:43;;;;;;;8.50;3.27;;;;;;;;;;5045069;28;20040;-68
2021/01/13 00:40:09;;;;;;;12.00;3.53;;;;;;;;;;5045861;28;20047;-67
2021/01/13 00:42:43;;;;;;;12.05;2.70;;;;;;;;;;5050402;28;20045;-67
2021/01/13 00:45:10;;;;;;;11.93;2.60;;;;;;;;;;5048835;28;20453;-67
2021/01/13 00:47:36;;;;;;;;;;;;;;;;;;5046709;28;20500;-67
2021/01/13 00:50:03;;;;;;;9.67;2.60;;;;;;;;;;5047410;28;19935;-68
2021/01/13 00:52:29;;;;;;;10.75;2.55;;;;;;;;;;5037322;28;20492;-67
2021/01/13 00:54:55;;;;;;;10.43;2.63;;;;;;;;;;5048040;28;20041;-67
2021/01/13 00:57:21;;;;;;;8.70;2.63;;;;;;;;;;5039486;28;20069;-67
2021/01/13 00:59:48;;;;;;;13.57;2.97;;;;;;;;;;5041846;28;20042;-67
2021/01/13 01:02:14;;;;;;;11.27;2.73;;;;;;;;;;5037838;28;20405;-67
2021/01/13 01:04:41;;;;;;;9.23;2.80;;;;;;;;;;5045244;28;20040;-67
2021/01/13 01:07:07;;;;;;;9.68;2.47;;;;;;;;;;5040071;28;20042;-67
2021/01/13 01:09:34;;;;;;;9.30;2.90;;;;;;;;;;5044690;28;20044;-67
2021/01/13 01:12:00;;;;;;;15.33;2.77;;;;;;;;;;5039752;28;20043;-67
2021/01/13 01:14:26;;;;;;;8.63;1.90;;;;;;;;;;5040855;28;20459;-67
2021/01/13 01:16:53;;;;;;;10.27;2.73;;;;;;;;;;5038134;28;20116;-68
2021/01/13 01:19:21;;;;;;;8.90;2.83;;;;;;;;;;5042696;28;20056;-67
2021/01/13 01:21:47;;;;;;;13.63;3.20;;;;;;;;;;5042133;28;20045;-67
2021/01/13 01:24:13;;;;;;;11.17;2.73;;;;;;;;;;5042274;28;20508;-67
2021/01/13 01:26:43;;;;;;;9.80;2.73;;;;;;;;;;5039455;28;20052;-69
2021/01/13 01:29:09;;;;;;;5.70;2.20;;;;;;;;;;5038386;28;20045;-68
2021/01/13 01:31:35;;;;;;;8.30;2.90;;;;;;;;;;5048158;28;20037;-68
2021/01/13 01:34:02;;;;;;;8.93;2.73;;;;;;;;;;5046636;28;20085;-68
2021/01/13 01:36:28;;;;;;;19.80;3.07;;;;;;;;;;5044804;28;20044;-68
2021/01/13 01:38:54;;;;;;;8.63;2.70;;;;;;;;;;5043696;28;20439;-69
2021/01/13 01:41:23;;;;;;;13.82;3.38;;;;;;;;;;5039408;28;20037;-69
2021/01/13 01:43:50;;;;;;;11.43;2.60;;;;;;;;;;5041167;28;20042;-68
2021/01/13 01:46:17;;;;;;;12.32;2.67;;;;;;;;;;5039497;28;20083;-69
2021/01/13 01:48:44;;;;;;;9.45;2.20;;;;;;;;;;5049075;28;20053;-69
2021/01/13 01:51:12;;;;;;;6.23;1.90;;;;;;;;;;5048350;28;20052;-69
2021/01/13 01:53:48;;;;;;;13.97;3.47;;;;;;;;;;5042452;28;20505;-69
2021/01/13 01:56:23;;;;;;;12.23;2.40;;;;;;;;;;5037739;28;20641;-69
2021/01/13 01:58:58;;;;;;;8.10;2.50;;;;;;;;;;5040413;28;20037;-68
2021/01/13 02:01:32;;;;;;;13.33;2.63;;;;;;;;;;5038638;28;20110;-68
2021/01/13 02:04:13;;;;;;;9.87;2.40;;;;;;;;;;5047291;28;20079;-69
2021/01/13 02:06:51;;;;;;;15.53;2.77;;;;;;;;;;5043609;28;20049;-68
2021/01/13 02:09:18;;;;;;;11.60;2.37;;;;;;;;;;5045447;28;20045;-69
2021/01/13 02:11:47;;;;;;;7.30;2.43;;;;;;;;;;5047468;28;20443;-69
2021/01/13 02:14:14;;;;;;;6.43;2.00;;;;;;;;;;5049524;28;20404;-68
2021/01/13 02:16:43;;;;;;;5.85;2.38;;;;;;;;;;5049383;28;20055;-68
2021/01/13 02:19:12;;;;;;;5.80;2.27;;;;;;;;;;5047269;28;20041;-68
2021/01/13 02:21:40;;;;;;;9.40;2.83;;;;;;;;;;5050102;28;20049;-68
2021/01/13 02:24:07;;;;;;;10.83;2.63;;;;;;;;;;5052186;28;20066;-68
2021/01/13 02:26:36;;;;;;;12.93;2.70;;;;;;;;;;5051774;28;20076;-69
2021/01/13 02:29:08;;;;;;;12.27;2.53;;;;;;;;;;5046726;28;20053;-69
2021/01/13 02:31:34;;;;;;;10.27;2.27;;;;;;;;;;5039243;28;20405;-69
2021/01/13 02:34:08;;;;;;;7.30;2.30;;;;;;;;;;5048210;28;20178;-68
2021/01/13 02:36:34;;;;;;;11.27;2.43;;;;;;;;;;5044958;28;20045;-69
2021/01/13 02:39:01;;;;;;;11.17;2.47;;;;;;;;;;5038162;28;20049;-68
2021/01/13 02:41:29;;;;;;;5.88;2.20;;;;;;;;;;5037378;28;20426;-69
2021/01/13 02:43:55;;;;;;;;;;;;;;;;;;5037022;28;20048;-69
2021/01/13 02:46:44;;;;;;;9.67;2.70;;;;;;;;;;5038894;28;19924;-68
2021/01/13 02:49:12;;;;;;;7.10;1.97;;;;;;;;;;5025802;28;20059;-68
2021/01/13 02:51:39;;;;;;;6.67;2.20;;;;;;;;;;5045613;28;20067;-69
2021/01/13 02:54:05;;;;;;;;;;;;;;;;;;5045398;28;20468;-68
2021/01/13 02:56:33;;;;;;;7.93;2.20;;;;;;;;;;5049076;28;20024;-68
2021/01/13 02:58:59;;;;;;;;;;;;;;;;;;5047907;28;20056;-68
2021/01/13 03:01:25;;;;;;;9.60;2.53;;;;;;;;;;5043973;28;19925;-68
2021/01/13 03:03:52;;;;;;;13.82;2.92;;;;;;;;;;5042310;28;21422;-68
2021/01/13 03:06:22;;;;;;;6.80;1.52;;;;;;;;;;5050957;28;20546;-69
2021/01/13 03:08:48;;;;;;;12.53;2.50;;;;;;;;;;5044351;28;20099;-68
2021/01/13 03:11:16;;;;;;;8.00;2.60;;;;;;;;;;5048431;28;20044;-69
2021/01/13 03:13:43;;;;;;;14.33;2.90;;;;;;;;;;5046786;28;20622;-68
2021/01/13 03:16:10;;;;;;;6.10;2.10;;;;;;;;;;5047982;28;20087;-68
2021/01/13 03:18:41;;;;;;;9.25;2.25;;;;;;;;;;5044174;28;20049;-68
2021/01/13 03:21:17;;;;;;;12.40;2.37;;;;;;;;;;5041745;28;20045;-68
2021/01/13 03:23:46;;;;;;;10.90;2.57;;;;;;;;;;5049319;28;20041;-69
2021/01/13 03:26:13;;;;;;;13.13;2.87;;;;;;;;;;5045008;28;20056;-68
2021/01/13 03:28:40;;;;;;;9.98;2.58;;;;;;;;;;5048177;28;20048;-69
2021/01/13 03:31:07;;;;;;;15.25;2.05;;;;;;;;;;5047646;28;20045;-68
2021/01/13 03:33:56;;;;;;;7.78;2.33;;;;;;;;;;5045323;28;20052;-68
2021/01/13 03:36:28;;;;;;;6.07;2.13;;;;;;;;;;5012836;28;20041;-68
2021/01/13 03:39:02;;;;;;;8.07;2.40;;;;;;;;;;5044252;28;20053;-68
2021/01/13 03:41:38;;;;;;;6.40;2.47;;;;;;;;;;5042285;28;20051;-68
2021/01/13 03:44:08;;;;;;;7.33;2.10;;;;;;;;;;5040697;28;20049;-68
2021/01/13 03:46:34;;;;;;;6.80;2.20;;;;;;;;;;5043731;28;20040;-69
2021/01/13 03:49:03;;;;;;;9.33;2.13;;;;;;;;;;5047528;28;20099;-69
2021/01/13 03:51:35;;;;;;;10.80;2.60;;;;;;;;;;5039591;28;20041;-70
2021/01/13 03:54:03;;;;;;;11.63;2.60;;;;;;;;;;5039559;28;20068;-68
2021/01/13 03:56:39;;;;;;;9.23;2.60;;;;;;;;;;5038769;28;20038;-68
2021/01/13 03:59:11;;;;;;;10.73;2.83;;;;;;;;;;5048607;28;20041;-68
2021/01/13 04:01:51;;;;;;;12.13;2.37;;;;;;;;;;5049172;28;20511;-68
2021/01/13 04:04:24;;;;;;;8.87;2.53;;;;;;;;;;5047972;28;20041;-68
2021/01/13 04:07:01;;;;;;;10.83;2.17;;;;;;;;;;5043165;28;20460;-68
2021/01/13 04:09:31;;;;;;;15.33;3.10;;;;;;;;;;5046971;28;20044;-68
2021/01/13 04:12:08;;;;;;;12.00;2.83;;;;;;;;;;5055313;28;20295;-69
2021/01/13 04:14:45;;;;;;;5.57;2.17;;;;;;;;;;5045421;28;20044;-68
2021/01/13 04:17:13;;;;;;;8.17;1.67;;;;;;;;;;5041493;28;20520;-68
2021/01/13 04:19:40;;;;;;;12.17;2.50;;;;;;;;;;5048443;28;20131;-69
2021/01/13 04:22:07;;;;;;;9.25;2.53;;;;;;;;;;5046344;28;20041;-68
2021/01/13 04:24:33;;;;;;;6.87;2.67;;;;;;;;;;5035817;28;20418;-68
2021/01/13 04:27:00;;;;;;;7.23;2.57;;;;;;;;;;5044880;28;20060;-69
2021/01/13 04:29:26;;;;;;;7.68;2.70;;;;;;;;;;5043539;28;20041;-68
2021/01/13 04:31:53;;;;;;;13.37;2.90;;;;;;;;;;5043786;28;20049;-68
2021/01/13 04:34:19;;;;;;;7.35;2.92;;;;;;;;;;5042187;28;20049;-68
2021/01/13 04:36:49;;;;;;;12.50;3.15;;;;;;;;;;5044673;28;20428;-68
2021/01/13 04:39:18;;;;;;;10.23;2.63;;;;;;;;;;5041515;28;20057;-69
2021/01/13 04:41:58;;;;;;;9.10;2.27;;;;;;;;;;5036356;28;20045;-68
2021/01/13 04:44:29;;;;;;;9.03;2.23;;;;;;;;;;5047681;28;20452;-68
2021/01/13 04:47:02;;;;;;;9.60;2.67;;;;;;;;;;5041485;28;20496;-69
2021/01/13 04:49:31;;;;;;;5.97;2.30;;;;;;;;;;5041176;28;20049;-68
2021/01/13 04:52:02;;;;;;;7.50;2.70;;;;;;;;;;5036310;28;20049;-69
2021/01/13 04:54:30;;;;;;;11.03;2.40;;;;;;;;;;5044037;28;20048;-68
2021/01/13 04:57:17;;;;;;;11.47;2.60;;;;;;;;;;5045396;28;20612;-69
2021/01/13 05:00:02;;;;;;;11.83;2.67;;;;;;;;;;5045236;28;20094;-68
2021/01/13 05:02:48;;;;;;;17.30;2.50;;;;;;;;;;5043537;28;20393;-68
2021/01/13 05:05:19;;;;;;;10.57;2.57;;;;;;;;;;5045339;28;20045;-69
2021/01/13 05:07:53;;;;;;;11.20;2.83;;;;;;;;;;5043948;28;20046;-69
2021/01/13 05:10:20;;;;;;;6.53;2.60;;;;;;;;;;5046336;28;20053;-68
2021/01/13 05:12:56;;;;;;;6.95;2.42;;;;;;;;;;5042621;28;20055;-68
2021/01/13 05:15:23;;;;;;;13.57;2.70;;;;;;;;;;5042078;28;20176;-68
2021/01/13 05:18:04;;;;;;;8.13;2.63;;;;;;;;;;5040354;28;20048;-68
2021/01/13 05:20:40;;;;;;;11.37;2.57;;;;;;;;;;5037607;28;20041;-69
2021/01/13 05:23:08;;;;;;;11.07;2.77;;;;;;;;;;5046231;28;20091;-68
2021/01/13 05:25:34;;;;;;;;;;;;;;;;;;5038677;28;20048;-69
2021/01/13 05:28:11;;;;;;;9.93;2.73;;;;;;;;;;5046894;28;20357;-68
2021/01/13 05:30:39;;;;;;;10.27;3.08;;;;;;;;;;5045901;28;20037;-68
2021/01/13 05:33:06;;;;;;;16.33;2.67;;;;;;;;;;5047599;28;20056;-68
2021/01/13 05:35:34;;;;;;;13.07;2.20;;;;;;;;;;5042486;28;20056;-68
2021/01/13 05:38:06;;;;;;;14.73;3.50;;;;;;;;;;5043192;28;20106;-68
2021/01/13 05:40:38;;;;;;;18.90;3.43;;;;;;;;;;5039987;28;20044;-68
2021/01/13 05:43:05;;;;;;;12.50;3.40;;;;;;;;;;5049533;28;20041;-68
2021/01/13 05:45:32;;;;;;;7.05;3.03;;;;;;;;;;5043480;28;20083;-68
2021/01/13 05:48:01;;;;;;;10.33;2.53;;;;;;;;;;5043093;28;20141;-68
2021/01/13 05:50:28;;;;;;;22.53;3.23;;;;;;;;;;5040501;28;20045;-68
2021/01/13 05:52:55;;;;;;;16.77;3.43;;;;;;;;;;5041779;28;20067;-68
2021/01/13 05:55:21;;;;;;;;;;;;;;;;;;5041477;28;20053;-68
2021/01/13 05:57:54;;;;;;;70.50;5.47;;;;;;;;;;5040115;28;19921;-68
2021/01/13 06:00:21;;;;;;;41.63;5.97;;;;;;;;;;5049051;28;20041;-68
2021/01/13 06:02:55;;;;;;;36.53;5.33;;;;;;;;;;5044589;28;20502;-68
2021/01/13 06:05:22;;;;;;;86.53;7.27;;;;;;;;;;5043069;28;20095;-68
2021/01/13 06:07:51;;;;;;;42.20;5.78;;;;;;;;;;5045770;28;20047;-68
2021/01/13 06:10:18;;;;;;;52.30;5.87;;;;;;;;;;5045464;28;20056;-68
2021/01/13 06:12:46;;;;;;;63.87;6.00;;;;;;;;;;5036659;28;20041;-68
2021/01/13 06:15:12;;;;;;;;;;;;;;;;;;5050423;28;20053;-68
2021/01/13 06:17:40;;;;;;;41.30;5.17;;;;;;;;;;5046444;28;19956;-69
2021/01/13 06:20:08;;;;;;;50.10;6.20;;;;;;;;;;5039959;28;20045;-69
2021/01/13 06:22:34;;;;;;;17.98;4.53;;;;;;;;;;5045725;28;20045;-68
2021/01/13 06:25:02;;;;;;;24.30;5.30;;;;;;;;;;5049300;28;20059;-68
2021/01/13 06:27:47;;;;;;;27.43;5.27;;;;;;;;;;5050693;28;20053;-68
2021/01/13 06:30:18;;;;;;;26.17;6.93;;;;;;;;;;5049066;28;20049;-69
2021/01/13 06:32:48;;;;;;;24.50;5.53;;;;;;;;;;5050082;28;20049;-68
2021/01/13 06:35:33;;;;;;;22.97;7.77;;;;;;;;;;5040199;28;20037;-68
2021/01/13 06:38:01;;;;;;;16.90;6.17;;;;;;;;;;5043298;28;20064;-68
2021/01/13 06:40:27;;;;;;;34.38;6.93;;;;;;;;;;5040824;28;20041;-68
2021/01/13 06:42:53;;;;;;;32.27;7.00;;;;;;;;;;5053747;28;20496;-69
2021/01/13 06:45:31;;;;;;;31.17;6.25;;;;;;;;;;5037911;28;20056;-69
2021/01/13 06:47:58;;;;;;;;;;;;;;;;;;5041618;28;20685;-68
2021/01/13 06:50:50;;;;;;;22.87;6.57;;;;;;;;;;5047030;28;19927;-68
2021/01/13 06:53:18;;;;;;;44.85;7.50;;;;;;;;;;5042101;28;20107;-68
2021/01/13 06:55:47;;;;;;;33.28;7.70;;;;;;;;;;5043825;28;20033;-69
2021/01/13 06:58:13;;;;;;;30.20;7.83;;;;;;;;;;5050922;28;20091;-68
2021/01/13 07:00:41;;;;;;;37.10;8.70;;;;;;;;;;5043913;28;20076;-68
2021/01/13 07:03:30;;;;;;;33.60;7.90;;;;;;;;;;5049491;28;20106;-68
2021/01/13 07:06:00;;;;;;;30.95;7.97;;;;;;;;;;5045294;28;20041;-68
2021/01/13 07:08:27;;;;;;;39.03;8.27;;;;;;;;;;5046177;28;20054;-68
2021/01/13 07:11:04;;;;;;;39.17;9.02;;;;;;;;;;5053405;28;20523;-68
2021/01/13 07:13:37;;;;;;;44.85;9.40;;;;;;;;;;5045744;28;20056;-68
2021/01/13 07:16:03;;;;;;;42.42;9.25;;;;;;;;;;5040718;28;20448;-68
2021/01/13 07:18:33;;;;;;;31.95;9.40;;;;;;;;;;5045104;28;20044;-68
2021/01/13 07:21:10;;;;;;;40.35;9.13;;;;;;;;;;5049623;28;20045;-68
2021/01/13 07:23:45;;;;;;;41.28;11.38;;;;;;;;;;5046382;28;20037;-68
2021/01/13 07:26:14;;;;;;;28.35;9.55;;;;;;;;;;5047398;28;20115;-68
2021/01/13 07:28:41;;;;;;;36.65;9.27;;;;;;;;;;5042195;28;20048;-69
2021/01/13 07:31:07;;;;;;;37.75;8.27;;;;;;;;;;5051816;28;20068;-68
2021/01/13 07:33:40;;;;;;;25.77;7.43;;;;;;;;;;5047812;28;20073;-68
2021/01/13 07:36:11;;;;;;;26.10;9.02;;;;;;;;;;5045808;28;20784;-69
2021/01/13 07:38:42;;;;;;;33.78;7.65;;;;;;;;;;5042082;28;20049;-69
2021/01/13 07:41:09;;;;;;;34.17;8.50;;;;;;;;;;5044664;28;20048;-68
2021/01/13 07:43:51;;;;;;;35.80;7.40;;;;;;;;;;5048038;28;20061;-69
2021/01/13 07:46:28;;;;;;;31.92;6.82;;;;;;;;;;5041918;28;20046;-69
2021/01/13 07:49:13;;;;;;;35.13;7.63;;;;;;;;;;5042545;28;20041;-68
2021/01/13 07:51:46;;;;;;;27.98;7.45;;;;;;;;;;5039024;28;20045;-68
2021/01/13 07:54:25;;;;;;;30.67;6.80;;;;;;;;;;5041526;28;20149;-68
2021/01/13 07:56:52;;;;;;;31.27;7.93;;;;;;;;;;5042934;28;20044;-68
2021/01/13 07:59:18;;;;;;;25.15;7.55;;;;;;;;;;5047274;28;20041;-68
2021/01/13 08:02:04;;;;;;;33.20;7.47;;;;;;;;;;5042783;28;20119;-69
2021/01/13 08:05:00;;;;;;;23.88;7.25;;;;;;;;;;5045464;28;20045;-68
2021/01/13 08:07:37;;;;;;;21.52;6.57;;;;;;;;;;5012512;28;20137;-68
2021/01/13 08:10:05;;;;;;;25.20;6.53;;;;;;;;;;5047373;28;20065;-68
2021/01/13 08:12:49;;;;;;;25.77;6.85;;;;;;;;;;5044784;28;20041;-68
2021/01/13 08:15:35;;;;;;;20.10;6.03;;;;;;;;;;5048485;28;20052;-68
2021/01/13 08:18:12;;;;;;;21.30;6.78;;;;;;;;;;5044568;28;20045;-69
2021/01/13 08:20:39;;;;;;;16.95;4.22;;;;;;;;;;5045901;28;20057;-68
2021/01/13 08:23:10;;;;;;;28.90;7.47;;;;;;;;;;5046502;28;20128;-68
2021/01/13 08:25:37;;;;;;;15.88;5.82;;;;;;;;;;5048756;28;20095;-68
2021/01/13 08:28:04;;;;;;;18.73;6.03;;;;;;;;;;5043515;28;20048;-68
2021/01/13 08:30:31;;;;;;;21.85;6.15;;;;;;;;;;5050381;28;20314;-68
2021/01/13 08:32:57;;;;;;;18.65;6.10;;;;;;;;;;5044420;28;20049;-68
2021/01/13 08:35:52;;;;;;;16.73;6.38;;;;;;;;;;5047158;28;20045;-68
2021/01/13 08:38:19;;;;;;;14.27;5.65;;;;;;;;;;5049981;28;20132;-68
2021/01/13 08:40:46;;;;;;;14.13;5.22;;;;;;;;;;5047016;28;20044;-68
2021/01/13 08:43:13;;;;;;;15.82;6.60;;;;;;;;;;5042074;28;20043;-68
2021/01/13 08:45:40;;;;;;;15.10;5.40;;;;;;;;;;5046478;28;20114;-68
2021/01/13 08:48:07;;;;;;;17.40;6.03;;;;;;;;;;5044628;28;20049;-69
2021/01/13 08:50:34;;;;;;;16.95;4.90;;;;;;;;;;5039085;28;20374;-69
2021/01/13 08:53:03;;;;;;;10.48;3.75;;;;;;;;;;5050458;28;20492;-68
2021/01/13 08:55:30;;;;;;;7.03;4.13;;;;;;;;;;5044011;28;20176;-68
2021/01/13 08:58:07;;;;;;;6.50;3.47;;;;;;;;;;5047274;28;20144;-68
2021/01/13 09:00:35;;;;;;;8.85;4.28;;;;;;;;;;5045298;28;20044;-68
2021/01/13 09:03:02;;;;;;;9.00;4.20;;;;;;;;;;5050496;28;20095;-68
2021/01/13 09:05:28;;;;;;;;;;;;;;;;;;5051876;28;20257;-68
2021/01/13 09:07:54;;;;;;;12.05;4.50;;;;;;;;;;5041492;28;19924;-68
2021/01/13 09:10:21;;;;;;;12.57;4.50;;;;;;;;;;5047717;28;20111;-68
2021/01/13 09:12:47;;;;;;;11.30;5.03;;;;;;;;;;5047763;28;20037;-68
2021/01/13 09:15:15;;;;;;;10.65;5.30;;;;;;;;;;5054712;28;20106;-69
2021/01/13 09:17:51;;;;;;;16.45;5.85;;;;;;;;;;5051144;28;20040;-68
2021/01/13 09:20:18;;;;;;;13.23;6.72;;;;;;;;;;5049828;28;20095;-68
2021/01/13 09:22:48;;;;;;;11.63;5.50;;;;;;;;;;5047667;28;20037;-68
2021/01/13 09:25:16;;;;;;;14.27;5.45;;;;;;;;;;5040505;28;20056;-68
2021/01/13 09:27:47;;;;;;;12.82;5.63;;;;;;;;;;5049080;28;20049;-68
2021/01/13 09:30:34;;;;;;;16.67;5.60;;;;;;;;;;5045546;28;20067;-69
2021/01/13 09:33:02;;;;;;;14.32;4.78;;;;;;;;;;5036313;28;20064;-68
2021/01/13 09:35:32;;;;;;;13.88;5.55;;;;;;;;;;5044531;28;20132;-68
2021/01/13 09:38:00;;;;;;;13.75;5.82;;;;;;;;;;5044998;28;20500;-68
2021/01/13 09:40:47;;;;;;;13.73;6.03;;;;;;;;;;5043554;28;20044;-68
2021/01/13 09:43:24;;;;;;;13.75;5.18;;;;;;;;;;5042539;28;20041;-69
2021/01/13 09:45:51;;;;;;;15.43;5.40;;;;;;;;;;5041041;28;20496;-68
2021/01/13 09:48:18;;;;;;;12.68;5.45;;;;;;;;;;5040852;28;20100;-69
2021/01/13 09:50:45;;;;;;;12.02;4.70;;;;;;;;;;5044348;28;20044;-68
2021/01/13 09:53:13;;;;;;;16.30;5.97;;;;;;;;;;5050350;28;20048;-68
2021/01/13 09:55:39;;;;;;;16.08;6.60;;;;;;;;;;5050481;28;20057;-68
2021/01/13 09:58:16;;;;;;;16.43;5.10;;;;;;;;;;5051847;28;20048;-68
2021/01/13 10:00:42;;;;;;;10.90;5.35;;;;;;;;;;5040657;28;20049;-68
2021/01/13 10:03:10;;;;;;;13.57;4.50;;;;;;;;;;5044139;28;20412;-68
2021/01/13 10:05:37;;;;;;;12.90;5.38;;;;;;;;;;5046777;28;20044;-69
2021/01/13 10:08:03;;;;;;;15.43;5.50;;;;;;;;;;5049379;28;20076;-68
2021/01/13 10:10:30;;;;;;;14.30;4.88;;;;;;;;;;5036266;28;20515;-68
2021/01/13 10:12:57;;;;;;;9.45;4.90;;;;;;;;;;5047556;28;20053;-68
2021/01/13 10:15:24;;;;;;;;;;;;;;;;;;5035705;28;20452;-69
2021/01/13 10:17:50;;;;;;;11.52;4.90;;;;;;;;;;5043844;28;20447;-68
2021/01/13 10:20:18;;;;;;;11.73;5.15;;;;;;;;;;5044499;28;20103;-69
2021/01/13 10:22:46;;;;;;;9.93;4.68;;;;;;;;;;5048701;28;20424;-68
2021/01/13 10:25:24;;;;;;;15.52;5.82;;;;;;;;;;5041707;28;20135;-68
2021/01/13 10:27:50;;;;;;;12.68;6.10;;;;;;;;;;5033597;28;20060;-68
2021/01/13 10:30:17;;;;;;;12.75;5.07;;;;;;;;;;5039007;28;20128;-68
2021/01/13 10:32:47;;;;;;;12.68;5.55;;;;;;;;;;5041466;28;20037;-68
2021/01/13 10:35:14;;;;;;;17.15;5.75;;;;;;;;;;5039347;28;20060;-68
2021/01/13 10:37:48;;;;;;;15.60;5.15;;;;;;;;;;5041807;28;20127;-68
2021/01/13 10:40:18;;;;;;;11.82;4.88;;;;;;;;;;5050243;28;20037;-69
2021/01/13 10:42:46;;;;;;;10.85;4.38;;;;;;;;;;5045346;28;20083;-69
2021/01/13 10:45:13;;;;;;;15.75;5.07;;;;;;;;;;5045685;28;20040;-68
2021/01/13 10:47:44;;;;;;;11.32;4.72;;;;;;;;;;5048625;28;20088;-68
2021/01/13 10:50:12;;;;;;;25.88;5.53;;;;;;;;;;5036585;28;20049;-69
2021/01/13 10:52:45;;;;;;;16.83;4.70;;;;;;;;;;5040910;28;20044;-68
2021/01/13 10:55:16;;;;;;;14.02;4.70;;;;;;;;;;5045536;28;20127;-69
2021/01/13 10:57:47;;;;;;;13.10;4.25;;;;;;;;;;5043945;28;20033;-69
2021/01/13 11:00:15;;;;;;;12.85;4.60;;;;;;;;;;5042054;28;20083;-69
2021/01/13 11:02:58;;;;;;;10.65;4.35;;;;;;;;;;5048470;28;20558;-69
2021/01/13 11:05:25;;;;;;;17.02;4.97;;;;;;;;;;5040318;28;20041;-69
2021/01/13 11:07:52;;;;;;;11.63;4.32;;;;;;;;;;5045856;28;20080;-68
2021/01/13 11:10:21;;;;;;;10.38;3.83;;;;;;;;;;5049834;28;20489;-69
2021/01/13 11:12:48;;;;;;;11.45;4.60;;;;;;;;;;5046771;28;20045;-69
2021/01/13 11:15:15;;;;;;;11.98;4.50;;;;;;;;;;5053688;28;20061;-69
2021/01/13 11:17:41;;;;;;;8.57;4.07;;;;;;;;;;5048009;28;20625;-68
2021/01/13 11:20:08;;;;;;;11.65;4.25;;;;;;;;;;5049256;28;20124;-68
2021/01/13 11:22:48;;;;;;;8.35;3.70;;;;;;;;;;5051313;28;20464;-68
2021/01/13 11:25:23;;;;;;;9.10;4.05;;;;;;;;;;5038089;28;20038;-69
2021/01/13 11:28:01;;;;;;;15.50;4.20;;;;;;;;;;5052493;28;20063;-69
2021/01/13 11:30:27;;;;;;;10.13;4.82;;;;;;;;;;5053513;28;20049;-69
2021/01/13 11:32:55;;;;;;;11.15;3.63;;;;;;;;;;5045843;28;20543;-68
2021/01/13 11:35:32;;;;;;;11.90;3.55;;;;;;;;;;5044810;28;20540;-68
2021/01/13 11:38:04;;;;;;;6.85;3.50;;;;;;;;;;5051928;28;20049;-68
2021/01/13 11:40:56;;;;;;;10.35;4.28;;;;;;;;;;5049295;28;20561;-68
2021/01/13 11:43:46;;;;;;;11.48;3.90;;;;;;;;;;5038939;28;20076;-69
2021/01/13 11:46:15;;;;;;;14.23;4.00;;;;;;;;;;5025980;28;20144;-69
2021/01/13 11:49:16;;;;;;;10.30;3.83;;;;;;;;;;5049012;28;20464;-68
2021/01/13 11:51:45;;;;;;;10.05;4.20;;;;;;;;;;5008136;28;20467;-68
2021/01/13 11:54:24;;;;;;;11.60;3.88;;;;;;;;;;5053188;28;20128;-69
2021/01/13 11:56:51;;;;;;;10.73;3.97;;;;;;;;;;5047683;28;20072;-68
2021/01/13 11:59:27;;;;;;;8.10;3.60;;;;;;;;;;5050817;28;20041;-68
2021/01/13 12:01:56;;;;;;;12.00;3.70;;;;;;;;;;5050937;28;20658;-69
2021/01/13 12:04:23;;;;;;;11.15;4.18;;;;;;;;;;5050663;28;20127;-69
2021/01/13 12:06:55;;;;;;;11.15;3.78;;;;;;;;;;5052190;28;20049;-69
2021/01/13 12:09:22;;;;;;;12.15;3.85;;;;;;;;;;5047365;28;20041;-69
2021/01/13 12:11:48;;;;;;;8.82;3.88;;;;;;;;;;5042280;28;20116;-68
2021/01/13 12:14:14;;;;;;;9.70;3.70;;;;;;;;;;5052779;28;20049;-69
2021/01/13 12:16:41;;;;;;;9.70;4.47;;;;;;;;;;5050381;28;20116;-69
2021/01/13 12:19:07;;;;;;;16.17;3.90;;;;;;;;;;5043058;28;20049;-69
2021/01/13 12:21:42;;;;;;;11.55;4.15;;;;;;;;;;5049688;28;20048;-68
2021/01/13 12:24:14;;;;;;;10.45;4.07;;;;;;;;;;5050625;28;20073;-69
2021/01/13 12:26:41;;;;;;;12.48;3.97;;;;;;;;;;5051916;28;20056;-69
2021/01/13 12:29:07;;;;;;;8.90;3.83;;;;;;;;;;5046807;28;20042;-69
2021/01/13 12:31:33;;;;;;;11.63;3.78;;;;;;;;;;5034143;28;20045;-69
2021/01/13 12:33:59;;;;;;;8.63;3.78;;;;;;;;;;5043002;28;20063;-69
2021/01/13 12:36:27;;;;;;;7.75;3.53;;;;;;;;;;5045407;28;20155;-68
2021/01/13 12:38:53;;;;;;;6.18;3.50;;;;;;;;;;5045849;28;20049;-69
2021/01/13 12:41:21;;;;;;;5.50;3.13;;;;;;;;;;5040067;28;20091;-69
2021/01/13 12:43:47;;;;;;;6.97;3.30;;;;;;;;;;5047740;28;20114;-69
2021/01/13 12:46:23;;;;;;;8.73;3.70;;;;;;;;;;5044388;28;20042;-69
2021/01/13 12:48:50;;;;;;;8.15;3.67;;;;;;;;;;5048951;28;20053;-69
2021/01/13 12:51:16;;;;;;;6.28;3.13;;;;;;;;;;5051649;28;20435;-69
2021/01/13 12:53:42;;;;;;;4.90;3.10;;;;;;;;;;5048242;28;20048;-68
2021/01/13 12:56:19;;;;;;;6.68;3.80;;;;;;;;;;5051780;28;20048;-69
2021/01/13 12:58:45;;;;;;;9.63;3.70;;;;;;;;;;5048315;28;20045;-69
2021/01/13 13:01:11;;;;;;;7.03;3.17;;;;;;;;;;5056431;28;20037;-69
2021/01/13 13:03:38;;;;;;;5.53;3.03;;;;;;;;;;5046357;28;20041;-68
2021/01/13 13:06:06;;;;;;;5.93;3.33;;;;;;;;;;5043450;28;20044;-69
2021/01/13 13:08:32;;;;;;;6.13;2.90;;;;;;;;;;5050915;28;20398;-69
2021/01/13 13:10:59;;;;;;;6.35;2.83;;;;;;;;;;5050640;28;20318;-69
2021/01/13 13:13:26;;;;;;;7.60;3.30;;;;;;;;;;5051033;28;20106;-69
2021/01/13 13:15:52;;;;;;;5.85;2.88;;;;;;;;;;5050396;28;20041;-69
2021/01/13 13:18:18;;;;;;;7.38;3.08;;;;;;;;;;5048432;28;20488;-69
2021/01/13 13:20:44;;;;;;;4.57;2.90;;;;;;;;;;5049808;28;20036;-69
2021/01/13 13:23:11;;;;;;;4.55;2.60;;;;;;;;;;5040479;28;20041;-69
2021/01/13 13:25:37;;;;;;;5.65;2.22;;;;;;;;;;5050865;28;20120;-69
2021/01/13 13:28:03;;;;;;;4.78;2.67;;;;;;;;;;5050214;28;20445;-69
2021/01/13 13:30:29;;;;;;;4.43;2.50;;;;;;;;;;5056130;28;20079;-69
2021/01/13 13:32:55;;;;;;;5.40;2.53;;;;;;;;;;5049941;28;20049;-69
2021/01/13 13:35:22;;;;;;;3.63;2.35;;;;;;;;;;5042681;28;20504;-69
2021/01/13 13:37:51;;;;;;;3.28;2.60;;;;;;;;;;5045627;28;20482;-68
2021/01/13 13:40:19;;;;;;;6.63;2.30;;;;;;;;;;5049625;28;20406;-68
2021/01/13 13:42:46;;;;;;;3.63;1.83;;;;;;;;;;5054427;28;20051;-69
2021/01/13 13:45:12;;;;;;;4.88;2.05;;;;;;;;;;5041940;28;20052;-69
2021/01/13 13:47:40;;;;;;;3.15;2.22;;;;;;;;;;5041462;28;20043;-68
2021/01/13 13:50:06;;;;;;;4.50;1.90;;;;;;;;;;5043837;28;20049;-68
2021/01/13 13:52:32;;;;;;;5.75;2.15;;;;;;;;;;5050948;28;20272;-69
2021/01/13 13:54:59;;;;;;;4.53;2.25;;;;;;;;;;5050428;28;20142;-69
2021/01/13 13:57:25;;;;;;;2.90;1.95;;;;;;;;;;5046220;28;20543;-69
2021/01/13 13:59:51;;;;;;;3.42;2.10;;;;;;;;;;5042484;28;20048;-69
2021/01/13 14:02:17;;;;;;;5.32;2.38;;;;;;;;;;5044286;28;20041;-69
2021/01/13 14:04:46;;;;;;;4.35;2.30;;;;;;;;;;5047708;28;20048;-68
2021/01/13 14:07:12;;;;;;;5.15;2.22;;;;;;;;;;5047092;28;20123;-69
2021/01/13 14:09:38;;;;;;;5.03;2.50;;;;;;;;;;5037727;28;20128;-69
2021/01/13 14:12:05;;;;;;;9.75;2.72;;;;;;;;;;5048938;28;20048;-69
2021/01/13 14:14:31;;;;;;;7.20;2.80;;;;;;;;;;5043918;28;20049;-69
2021/01/13 14:16:58;;;;;;;7.85;2.95;;;;;;;;;;5055052;28;20043;-69
2021/01/13 14:19:24;;;;;;;5.15;2.47;;;;;;;;;;5049069;28;20041;-69
2021/01/13 14:21:50;;;;;;;6.93;3.50;;;;;;;;;;5048609;28;20056;-69
2021/01/13 14:24:16;;;;;;;3.17;1.95;;;;;;;;;;5049476;28;20493;-69
2021/01/13 14:26:43;;;;;;;7.53;3.22;;;;;;;;;;5041767;28;20481;-69
2021/01/13 14:29:09;;;;;;;7.47;3.25;;;;;;;;;;5049913;28;20041;-69
2021/01/13 14:31:36;;;;;;;4.80;3.35;;;;;;;;;;5041274;28;20045;-69
2021/01/13 14:34:03;;;;;;;7.18;3.35;;;;;;;;;;5047656;28;20451;-69
2021/01/13 14:36:29;;;;;;;8.27;3.60;;;;;;;;;;5042280;28;20041;-69
2021/01/13 14:38:55;;;;;;;8.18;3.08;;;;;;;;;;5044925;28;20049;-69
2021/01/13 14:41:29;;;;;;;6.23;2.90;;;;;;;;;;5045226;28;20041;-69
2021/01/13 14:43:55;;;;;;;7.50;3.05;;;;;;;;;;5048412;28;20296;-69
2021/01/13 14:46:23;;;;;;;5.80;3.55;;;;;;;;;;5049194;28;20112;-69
2021/01/13 14:48:49;;;;;;;6.22;3.22;;;;;;;;;;5047705;28;20057;-69
2021/01/13 14:51:16;;;;;;;7.10;3.90;;;;;;;;;;5044106;28;20112;-69
2021/01/13 14:53:42;;;;;;;7.05;3.40;;;;;;;;;;5051217;28;20509;-69